Shoyo Maru — JD2149 — position and weather

sailwx.info

Track history (hours):
 
Tides and Currents Weather Stations Pressure Air Temp Water Temp Dewpoint Dewpoint Depression Visibility Wind Speed Wind Dir Waves Ship Positions

Shoyo Maru

Last reported at 2018-May-15 14:20 UTC. Time now 2018-May-22 21:25 UTC.
Position N 33°48' E 131°02'.

Length 69 m; draft 4 m.

Type: Cargo ship. MMSI: 431101122.

Date/timePositionNaut miles runAvg speedWind from/ knotsBaromVisibWave heightAir tempDewpointWater temp
2018-May-15 14:20N 33°48' E 131°02'2 6.0
2018-May-15 14:00N 33°47' E 131°00'0 0.0
2018-May-15 13:30N 33°47' E 131°00'0 0.0
2018-May-15 12:59N 33°47' E 131°00'0 0.0
2018-May-15 12:29N 33°47' E 131°00'0 0.0
2018-May-15 11:59N 33°47' E 131°00'0 0.0
2018-May-15 11:29N 33°47' E 131°00'0 0.0
2018-May-15 10:59N 33°47' E 131°00'0 0.0
2018-May-15 10:29N 33°47' E 131°00'0 0.0
2018-May-15 09:59N 33°47' E 131°00'0 0.0
2018-May-15 09:28N 33°47' E 131°00'0 0.0
2018-May-15 09:00N 33°47' E 131°00'0 0.0
2018-May-15 08:30N 33°47' E 131°00'3 5.3
2018-May-15 08:01N 33°48' E 131°03'0 0.0
2018-May-15 07:30N 33°48' E 131°03'0 0.0
2018-May-15 07:00N 33°48' E 131°03'0 0.1
2018-May-15 06:27N 33°48' E 131°03'0 0.1
2018-May-15 06:00N 33°48' E 131°03'0 0.0
2018-May-15 05:30N 33°48' E 131°03'0 0.0
2018-May-15 04:57N 33°48' E 131°03'0 0.0
2018-May-15 04:30N 33°48' E 131°03'0 0.0
2018-May-15 04:00N 33°48' E 131°03'0 0.0
2018-May-15 03:30N 33°48' E 131°03'0 0.0
2018-May-15 03:00N 33°48' E 131°03'0 0.0
2018-May-15 02:30N 33°48' E 131°03'0 0.0
2018-May-15 02:00N 33°48' E 131°03'0 0.0
2018-May-15 01:30N 33°48' E 131°03'0 0.1
2018-May-15 01:00N 33°48' E 131°03'0 0.0
2018-May-15 00:30N 33°48' E 131°03'0 0.0
2018-May-15 00:00N 33°48' E 131°03'0 0.0
2018-May-14 23:27N 33°48' E 131°03'0 0.0
2018-May-14 23:00N 33°48' E 131°03'0 0.0
2018-May-14 22:30N 33°48' E 131°03'0 0.0
2018-May-14 22:00N 33°48' E 131°03'0 0.0
2018-May-14 21:27N 33°48' E 131°03'0 0.0
2018-May-14 20:57N 33°48' E 131°03'0 0.0
2018-May-14 20:30N 33°48' E 131°03'0 0.0
2018-May-14 19:56N 33°48' E 131°03'0 0.0
2018-May-14 19:26N 33°48' E 131°03'0 0.0
2018-May-14 18:59N 33°48' E 131°03'0 0.1
2018-May-14 18:29N 33°48' E 131°03'0 0.0
2018-May-14 17:59N 33°48' E 131°03'0 0.0
2018-May-14 17:26N 33°48' E 131°03'0 0.0
2018-May-14 16:59N 33°48' E 131°03'0 0.0
2018-May-14 16:26N 33°48' E 131°03'0 0.0
2018-May-14 15:59N 33°48' E 131°03'0 0.0
2018-May-14 15:29N 33°48' E 131°03'0 0.0
2018-May-14 14:59N 33°48' E 131°03'0 0.0
2018-May-14 14:29N 33°48' E 131°03'0 0.0
2018-May-14 14:00N 33°48' E 131°03'4 8.0
2018-May-14 13:30N 33°52' E 131°03'612.1
2018-May-14 13:00N 33°58' E 131°01'4 8.9
2018-May-14 12:30N 33°56' E 130°56'3 5.6
2018-May-14 11:59N 33°55' E 130°53'4 9.1
2018-May-14 11:30N 33°59' E 130°52'510.8
2018-May-14 11:00N 34°02' E 130°47'1 2.8
2018-May-14 10:30N 34°03' E 130°46'510.9
2018-May-14 10:00N 33°58' E 130°45'612.0
2018-May-14 09:30N 33°57' E 130°38'612.1
2018-May-14 09:00N 33°57' E 130°31'611.6
2018-May-14 08:30N 33°56' E 130°24'611.5
2018-May-14 08:00N 33°53' E 130°18'611.6
2018-May-14 07:30N 33°49' E 130°12'611.6
2018-May-14 07:00N 33°46' E 130°07'711.8
2018-May-14 06:22N 33°42' E 129°59'612.3
2018-May-14 05:53N 33°39' E 129°53'511.7
2018-May-14 05:27N 33°35' E 129°49'11 0.3
2018-May-12 12:45N 33°43' E 129°59'311.8
2018-May-12 12:29N 33°45' E 130°02'612.1
2018-May-12 12:00N 33°48' E 130°07'612.1
2018-May-12 11:30N 33°50' E 130°14'612.4
2018-May-12 11:00N 33°54' E 130°21'612.3
2018-May-12 10:30N 33°56' E 130°27'612.1
2018-May-12 10:00N 33°58' E 130°34'612.4
2018-May-12 09:30N 33°58' E 130°42'612.8
2018-May-12 09:00N 33°58' E 130°49'611.5
2018-May-12 08:30N 33°55' E 130°56'510.6
2018-May-12 08:00N 33°59' E 131°00'611.4
2018-May-12 07:30N 33°56' E 131°06'612.0
2018-May-12 07:00N 33°55' E 131°13'2 2.5
2018-May-12 06:06N 33°57' E 131°14'0 0.0
2018-May-12 05:59N 33°57' E 131°14'0 0.0
2018-May-12 05:21N 33°57' E 131°14'0 0.0
2018-May-12 04:53N 33°57' E 131°14'0 0.0
2018-May-12 04:25N 33°57' E 131°14'0 0.0
2018-May-12 03:58N 33°57' E 131°14'0 0.0
2018-May-12 02:26N 33°57' E 131°14'0 0.0
2018-May-12 01:48N 33°57' E 131°14'0 0.0
2018-May-12 01:28N 33°57' E 131°14'0 0.1
2018-May-12 01:00N 33°57' E 131°14'3 5.5
2018-May-12 00:30N 33°54' E 131°13'0 0.0
2018-May-11 23:58N 33°54' E 131°13'0 0.0
2018-May-11 23:25N 33°54' E 131°13'0 0.0
2018-May-11 22:58N 33°54' E 131°13'0 0.0
2018-May-11 22:28N 33°54' E 131°13'0 0.0
2018-May-11 21:55N 33°54' E 131°13'0 0.0
2018-May-11 21:28N 33°54' E 131°13'0 0.0
2018-May-11 20:55N 33°54' E 131°13'0 0.0
2018-May-11 20:28N 33°54' E 131°13'0 0.0
2018-May-11 19:58N 33°54' E 131°13'0 0.0
2018-May-11 19:25N 33°54' E 131°13'0 0.0
2018-May-11 18:55N 33°54' E 131°13'0 0.0
2018-May-11 18:28N 33°54' E 131°13'0 0.0
2018-May-11 17:55N 33°54' E 131°13'0 0.0
2018-May-11 17:28N 33°54' E 131°13'0 0.0
2018-May-11 16:55N 33°54' E 131°13'0 0.0
2018-May-11 16:28N 33°54' E 131°13'0 0.1
2018-May-11 15:55N 33°54' E 131°13'0 0.2
2018-May-11 15:28N 33°54' E 131°14'0 0.0
2018-May-11 14:58N 33°54' E 131°14'0 0.0
2018-May-11 14:28N 33°54' E 131°14'0 0.0
2018-May-11 13:58N 33°54' E 131°14'0 0.0
2018-May-11 13:28N 33°54' E 131°14'0 0.2
2018-May-11 13:00N 33°54' E 131°14'4 8.9
2018-May-11 12:31N 33°51' E 131°10'612.6
2018-May-11 12:00N 33°49' E 131°03'3 4.9
2018-May-11 11:28N 33°47' E 131°00'0 0.0
2018-May-11 10:55N 33°47' E 131°00'0 0.0
2018-May-11 10:01N 33°47' E 131°00'0 0.0
2018-May-11 09:49N 33°47' E 131°00'0 0.0
2018-May-11 09:25N 33°47' E 131°00'0 0.0
2018-May-11 08:58N 33°47' E 131°00'0 0.0
2018-May-11 08:25N 33°47' E 131°00'0 0.0
2018-May-11 07:58N 33°47' E 131°00'0 0.0
2018-May-11 07:28N 33°47' E 131°00'0 0.0
2018-May-11 06:55N 33°47' E 131°00'0 0.0
2018-May-11 06:22N 33°47' E 131°00'0 0.0
2018-May-11 06:00N 33°47' E 131°00'0 0.0
2018-May-11 05:29N 33°47' E 131°00'0 0.0
2018-May-11 04:59N 33°47' E 131°00'2 3.2
2018-May-11 04:30N 33°48' E 131°02'2 3.2
2018-May-11 04:00N 33°48' E 131°04'3 6.3
2018-May-11 03:30N 33°47' E 131°00'0 0.0
2018-May-11 03:00N 33°47' E 131°00'0 0.0
2018-May-11 02:21N 33°47' E 131°00'0 0.0
2018-May-11 01:57N 33°47' E 131°00'0 0.0
2018-May-11 01:27N 33°47' E 131°00'0 0.0
2018-May-11 00:57N 33°47' E 131°00'0 0.0
2018-May-10 23:05N 33°47' E 131°00'0 0.0
2018-May-10 23:00N 33°47' E 131°00'3 6.1
2018-May-10 22:30N 33°48' E 131°03'0 0.1
2018-May-10 22:00N 33°48' E 131°03'0 0.1
2018-May-10 21:27N 33°48' E 131°03'0 0.0
2018-May-10 21:00N 33°48' E 131°03'0 0.0
2018-May-10 20:27N 33°48' E 131°03'0 0.0
2018-May-10 19:57N 33°48' E 131°03'0 0.0
2018-May-10 19:30N 33°48' E 131°03'0 0.1
2018-May-10 19:00N 33°48' E 131°03'0 0.1
2018-May-10 18:27N 33°48' E 131°03'0 0.0
2018-May-10 17:59N 33°48' E 131°03'0 0.0
2018-May-10 17:29N 33°48' E 131°03'0 0.1
2018-May-10 16:59N 33°48' E 131°03'0 0.0
2018-May-10 16:20N 33°48' E 131°03'0 0.0
2018-May-10 15:56N 33°48' E 131°03'0 0.0
2018-May-10 15:26N 33°48' E 131°03'0 0.0
2018-May-10 14:59N 33°48' E 131°03'0 0.0
2018-May-10 14:29N 33°48' E 131°03'0 0.0
2018-May-10 13:59N 33°48' E 131°03'0 0.0
2018-May-10 13:29N 33°48' E 131°03'0 0.0
2018-May-10 12:56N 33°48' E 131°03'0 0.0
2018-May-10 12:26N 33°48' E 131°03'0 0.0
2018-May-10 11:59N 33°48' E 131°03'0 0.0
2018-May-10 11:29N 33°48' E 131°03'1 1.7
2018-May-10 11:00N 33°49' E 131°04'612.8
2018-May-10 10:30N 33°55' E 131°03'5 9.7
2018-May-10 10:00N 33°58' E 130°58'510.1
2018-May-10 09:30N 33°54' E 130°54'611.7
2018-May-10 09:00N 33°58' E 130°48'612.8
2018-May-10 08:30N 33°58' E 130°40'713.0
2018-May-10 08:00N 33°57' E 130°33'712.9
2018-May-10 07:30N 33°56' E 130°25'612.8
2018-May-10 07:00N 33°53' E 130°18'712.5
2018-May-10 06:29N 33°49' E 130°12'612.4
2018-May-10 06:00N 33°46' E 130°06'612.4
2018-May-10 05:29N 33°42' E 129°59'912.6
2018-May-10 04:48N 33°38' E 129°50'  
2018-May-07 16:32N 33°42' E 129°58'112.8
2018-May-07 16:29N 33°43' E 129°59'613.0
2018-May-07 16:00N 33°46' E 130°06'713.2
2018-May-07 15:30N 33°49' E 130°12'612.8
2018-May-07 15:00N 33°53' E 130°19'713.2
2018-May-07 14:31N 33°56' E 130°26'612.5
2018-May-07 14:00N 33°58' E 130°33'612.4
2018-May-07 13:31N 33°58' E 130°40'612.5
2018-May-07 13:01N 33°58' E 130°48'510.7
2018-May-07 12:31N 33°55' E 130°54'3 6.9
2018-May-07 12:01N 33°57' E 130°57'4 8.0
2018-May-07 11:31N 33°58' E 131°02'611.7
2018-May-07 11:00N 33°55' E 131°07'612.1
2018-May-07 10:30N 33°52' E 131°14'611.9
2018-May-07 10:01N 33°50' E 131°20'611.8
2018-May-07 09:28N 33°47' E 131°27'611.8
2018-May-07 09:00N 33°44' E 131°33'611.4
2018-May-07 08:30N 33°42' E 131°39'610.9
2018-May-07 07:59N 33°38' E 131°44'511.0
2018-May-07 07:30N 33°34' E 131°48'611.4
2018-May-07 06:57N 33°28' E 131°51'511.9
2018-May-07 06:30N 33°23' E 131°54'711.9
2018-May-07 05:57N 33°18' E 131°59'7 9.9
2018-May-07 05:13N 33°11' E 131°58'  
Track history (hours):
 
Tides and Currents Weather Stations Pressure Air Temp Water Temp Dewpoint Dewpoint Depression Visibility Wind Speed Wind Dir Waves Ship Positions

Shoyo Maru

Last reported at 2018-May-15 14:20 UTC. Time now 2018-May-22 21:25 UTC.
Position N 33°48' E 131°02'.

Length 69 m; draft 4 m.

Type: Cargo ship. MMSI: 431101122.

Date/timePositionNaut miles runAvg speedWind from/ knotsBaromVisibWave heightAir tempDewpointWater temp
2018-May-15 14:20N 33°48' E 131°02'2 6.0
2018-May-15 14:00N 33°47' E 131°00'0 0.0
2018-May-15 13:30N 33°47' E 131°00'0 0.0
2018-May-15 12:59N 33°47' E 131°00'0 0.0
2018-May-15 12:29N 33°47' E 131°00'0 0.0
2018-May-15 11:59N 33°47' E 131°00'0 0.0
2018-May-15 11:29N 33°47' E 131°00'0 0.0
2018-May-15 10:59N 33°47' E 131°00'0 0.0
2018-May-15 10:29N 33°47' E 131°00'0 0.0
2018-May-15 09:59N 33°47' E 131°00'0 0.0
2018-May-15 09:28N 33°47' E 131°00'0 0.0
2018-May-15 09:00N 33°47' E 131°00'0 0.0
2018-May-15 08:30N 33°47' E 131°00'3 5.3
2018-May-15 08:01N 33°48' E 131°03'0 0.0
2018-May-15 07:30N 33°48' E 131°03'0 0.0
2018-May-15 07:00N 33°48' E 131°03'0 0.1
2018-May-15 06:27N 33°48' E 131°03'0 0.1
2018-May-15 06:00N 33°48' E 131°03'0 0.0
2018-May-15 05:30N 33°48' E 131°03'0 0.0
2018-May-15 04:57N 33°48' E 131°03'0 0.0
2018-May-15 04:30N 33°48' E 131°03'0 0.0
2018-May-15 04:00N 33°48' E 131°03'0 0.0
2018-May-15 03:30N 33°48' E 131°03'0 0.0
2018-May-15 03:00N 33°48' E 131°03'0 0.0
2018-May-15 02:30N 33°48' E 131°03'0 0.0
2018-May-15 02:00N 33°48' E 131°03'0 0.0
2018-May-15 01:30N 33°48' E 131°03'0 0.1
2018-May-15 01:00N 33°48' E 131°03'0 0.0
2018-May-15 00:30N 33°48' E 131°03'0 0.0
2018-May-15 00:00N 33°48' E 131°03'0 0.0
2018-May-14 23:27N 33°48' E 131°03'0 0.0
2018-May-14 23:00N 33°48' E 131°03'0 0.0
2018-May-14 22:30N 33°48' E 131°03'0 0.0
2018-May-14 22:00N 33°48' E 131°03'0 0.0
2018-May-14 21:27N 33°48' E 131°03'0 0.0
2018-May-14 20:57N 33°48' E 131°03'0 0.0
2018-May-14 20:30N 33°48' E 131°03'0 0.0
2018-May-14 19:56N 33°48' E 131°03'0 0.0
2018-May-14 19:26N 33°48' E 131°03'0 0.0
2018-May-14 18:59N 33°48' E 131°03'0 0.1
2018-May-14 18:29N 33°48' E 131°03'0 0.0
2018-May-14 17:59N 33°48' E 131°03'0 0.0
2018-May-14 17:26N 33°48' E 131°03'0 0.0
2018-May-14 16:59N 33°48' E 131°03'0 0.0
2018-May-14 16:26N 33°48' E 131°03'0 0.0
2018-May-14 15:59N 33°48' E 131°03'0 0.0
2018-May-14 15:29N 33°48' E 131°03'0 0.0
2018-May-14 14:59N 33°48' E 131°03'0 0.0
2018-May-14 14:29N 33°48' E 131°03'0 0.0
2018-May-14 14:00N 33°48' E 131°03'4 8.0
2018-May-14 13:30N 33°52' E 131°03'612.1
2018-May-14 13:00N 33°58' E 131°01'4 8.9
2018-May-14 12:30N 33°56' E 130°56'3 5.6
2018-May-14 11:59N 33°55' E 130°53'4 9.1
2018-May-14 11:30N 33°59' E 130°52'510.8
2018-May-14 11:00N 34°02' E 130°47'1 2.8
2018-May-14 10:30N 34°03' E 130°46'510.9
2018-May-14 10:00N 33°58' E 130°45'612.0
2018-May-14 09:30N 33°57' E 130°38'612.1
2018-May-14 09:00N 33°57' E 130°31'611.6
2018-May-14 08:30N 33°56' E 130°24'611.5
2018-May-14 08:00N 33°53' E 130°18'611.6
2018-May-14 07:30N 33°49' E 130°12'611.6
2018-May-14 07:00N 33°46' E 130°07'711.8
2018-May-14 06:22N 33°42' E 129°59'612.3
2018-May-14 05:53N 33°39' E 129°53'511.7
2018-May-14 05:27N 33°35' E 129°49'11 0.3
2018-May-12 12:45N 33°43' E 129°59'311.8
2018-May-12 12:29N 33°45' E 130°02'612.1
2018-May-12 12:00N 33°48' E 130°07'612.1
2018-May-12 11:30N 33°50' E 130°14'612.4
2018-May-12 11:00N 33°54' E 130°21'612.3
2018-May-12 10:30N 33°56' E 130°27'612.1
2018-May-12 10:00N 33°58' E 130°34'612.4
2018-May-12 09:30N 33°58' E 130°42'612.8
2018-May-12 09:00N 33°58' E 130°49'611.5
2018-May-12 08:30N 33°55' E 130°56'510.6
2018-May-12 08:00N 33°59' E 131°00'611.4
2018-May-12 07:30N 33°56' E 131°06'612.0
2018-May-12 07:00N 33°55' E 131°13'2 2.5
2018-May-12 06:06N 33°57' E 131°14'0 0.0
2018-May-12 05:59N 33°57' E 131°14'0 0.0
2018-May-12 05:21N 33°57' E 131°14'0 0.0
2018-May-12 04:53N 33°57' E 131°14'0 0.0
2018-May-12 04:25N 33°57' E 131°14'0 0.0
2018-May-12 03:58N 33°57' E 131°14'0 0.0
2018-May-12 02:26N 33°57' E 131°14'0 0.0
2018-May-12 01:48N 33°57' E 131°14'0 0.0
2018-May-12 01:28N 33°57' E 131°14'0 0.1
2018-May-12 01:00N 33°57' E 131°14'3 5.5
2018-May-12 00:30N 33°54' E 131°13'0 0.0
2018-May-11 23:58N 33°54' E 131°13'0 0.0
2018-May-11 23:25N 33°54' E 131°13'0 0.0
2018-May-11 22:58N 33°54' E 131°13'0 0.0
2018-May-11 22:28N 33°54' E 131°13'0 0.0
2018-May-11 21:55N 33°54' E 131°13'0 0.0
2018-May-11 21:28N 33°54' E 131°13'0 0.0
2018-May-11 20:55N 33°54' E 131°13'0 0.0
2018-May-11 20:28N 33°54' E 131°13'0 0.0
2018-May-11 19:58N 33°54' E 131°13'0 0.0
2018-May-11 19:25N 33°54' E 131°13'0 0.0
2018-May-11 18:55N 33°54' E 131°13'0 0.0
2018-May-11 18:28N 33°54' E 131°13'0 0.0
2018-May-11 17:55N 33°54' E 131°13'0 0.0
2018-May-11 17:28N 33°54' E 131°13'0 0.0
2018-May-11 16:55N 33°54' E 131°13'0 0.0
2018-May-11 16:28N 33°54' E 131°13'0 0.1
2018-May-11 15:55N 33°54' E 131°13'0 0.2
2018-May-11 15:28N 33°54' E 131°14'0 0.0
2018-May-11 14:58N 33°54' E 131°14'0 0.0
2018-May-11 14:28N 33°54' E 131°14'0 0.0
2018-May-11 13:58N 33°54' E 131°14'0 0.0
2018-May-11 13:28N 33°54' E 131°14'0 0.2
2018-May-11 13:00N 33°54' E 131°14'4 8.9
2018-May-11 12:31N 33°51' E 131°10'612.6
2018-May-11 12:00N 33°49' E 131°03'3 4.9
2018-May-11 11:28N 33°47' E 131°00'0 0.0
2018-May-11 10:55N 33°47' E 131°00'0 0.0
2018-May-11 10:01N 33°47' E 131°00'0 0.0
2018-May-11 09:49N 33°47' E 131°00'0 0.0
2018-May-11 09:25N 33°47' E 131°00'0 0.0
2018-May-11 08:58N 33°47' E 131°00'0 0.0
2018-May-11 08:25N 33°47' E 131°00'0 0.0
2018-May-11 07:58N 33°47' E 131°00'0 0.0
2018-May-11 07:28N 33°47' E 131°00'0 0.0
2018-May-11 06:55N 33°47' E 131°00'0 0.0
2018-May-11 06:22N 33°47' E 131°00'0 0.0
2018-May-11 06:00N 33°47' E 131°00'0 0.0
2018-May-11 05:29N 33°47' E 131°00'0 0.0
2018-May-11 04:59N 33°47' E 131°00'2 3.2
2018-May-11 04:30N 33°48' E 131°02'2 3.2
2018-May-11 04:00N 33°48' E 131°04'3 6.3
2018-May-11 03:30N 33°47' E 131°00'0 0.0
2018-May-11 03:00N 33°47' E 131°00'0 0.0
2018-May-11 02:21N 33°47' E 131°00'0 0.0
2018-May-11 01:57N 33°47' E 131°00'0 0.0
2018-May-11 01:27N 33°47' E 131°00'0 0.0
2018-May-11 00:57N 33°47' E 131°00'0 0.0
2018-May-10 23:05N 33°47' E 131°00'0 0.0
2018-May-10 23:00N 33°47' E 131°00'3 6.1
2018-May-10 22:30N 33°48' E 131°03'0 0.1
2018-May-10 22:00N 33°48' E 131°03'0 0.1
2018-May-10 21:27N 33°48' E 131°03'0 0.0
2018-May-10 21:00N 33°48' E 131°03'0 0.0
2018-May-10 20:27N 33°48' E 131°03'0 0.0
2018-May-10 19:57N 33°48' E 131°03'0 0.0
2018-May-10 19:30N 33°48' E 131°03'0 0.1
2018-May-10 19:00N 33°48' E 131°03'0 0.1
2018-May-10 18:27N 33°48' E 131°03'0 0.0
2018-May-10 17:59N 33°48' E 131°03'0 0.0
2018-May-10 17:29N 33°48' E 131°03'0 0.1
2018-May-10 16:59N 33°48' E 131°03'0 0.0
2018-May-10 16:20N 33°48' E 131°03'0 0.0
2018-May-10 15:56N 33°48' E 131°03'0 0.0
2018-May-10 15:26N 33°48' E 131°03'0 0.0
2018-May-10 14:59N 33°48' E 131°03'0 0.0
2018-May-10 14:29N 33°48' E 131°03'0 0.0
2018-May-10 13:59N 33°48' E 131°03'0 0.0
2018-May-10 13:29N 33°48' E 131°03'0 0.0
2018-May-10 12:56N 33°48' E 131°03'0 0.0
2018-May-10 12:26N 33°48' E 131°03'0 0.0
2018-May-10 11:59N 33°48' E 131°03'0 0.0
2018-May-10 11:29N 33°48' E 131°03'1 1.7
2018-May-10 11:00N 33°49' E 131°04'612.8
2018-May-10 10:30N 33°55' E 131°03'5 9.7
2018-May-10 10:00N 33°58' E 130°58'510.1
2018-May-10 09:30N 33°54' E 130°54'611.7
2018-May-10 09:00N 33°58' E 130°48'612.8
2018-May-10 08:30N 33°58' E 130°40'713.0
2018-May-10 08:00N 33°57' E 130°33'712.9
2018-May-10 07:30N 33°56' E 130°25'612.8
2018-May-10 07:00N 33°53' E 130°18'712.5
2018-May-10 06:29N 33°49' E 130°12'612.4
2018-May-10 06:00N 33°46' E 130°06'612.4
2018-May-10 05:29N 33°42' E 129°59'912.6
2018-May-10 04:48N 33°38' E 129°50'  
2018-May-07 16:32N 33°42' E 129°58'112.8
2018-May-07 16:29N 33°43' E 129°59'613.0
2018-May-07 16:00N 33°46' E 130°06'713.2
2018-May-07 15:30N 33°49' E 130°12'612.8
2018-May-07 15:00N 33°53' E 130°19'713.2
2018-May-07 14:31N 33°56' E 130°26'612.5
2018-May-07 14:00N 33°58' E 130°33'612.4
2018-May-07 13:31N 33°58' E 130°40'612.5
2018-May-07 13:01N 33°58' E 130°48'510.7
2018-May-07 12:31N 33°55' E 130°54'3 6.9
2018-May-07 12:01N 33°57' E 130°57'4 8.0
2018-May-07 11:31N 33°58' E 131°02'611.7
2018-May-07 11:00N 33°55' E 131°07'612.1
2018-May-07 10:30N 33°52' E 131°14'611.9
2018-May-07 10:01N 33°50' E 131°20'611.8
2018-May-07 09:28N 33°47' E 131°27'611.8
2018-May-07 09:00N 33°44' E 131°33'611.4
2018-May-07 08:30N 33°42' E 131°39'610.9
2018-May-07 07:59N 33°38' E 131°44'511.0
2018-May-07 07:30N 33°34' E 131°48'611.4
2018-May-07 06:57N 33°28' E 131°51'511.9
2018-May-07 06:30N 33°23' E 131°54'711.9
2018-May-07 05:57N 33°18' E 131°59'7 9.9
2018-May-07 05:13N 33°11' E 131°58'  

Dump ship's entire track history